createdAt,value
2018-04-16T00:00:51.266Z,87.07
2018-04-16T00:03:57.083Z,87.11
2018-04-16T00:07:02.053Z,87.23
2018-04-16T00:10:07.931Z,87.20
2018-04-16T00:13:14.063Z,87.19
2018-04-16T00:16:19.717Z,87.08
2018-04-16T00:19:24.692Z,87.08
2018-04-16T00:22:31.774Z,87.14
2018-04-16T00:25:38.384Z,87.08
2018-04-16T00:28:43.985Z,87.14
2018-04-16T00:31:54.602Z,87.25
2018-04-16T00:35:06.142Z,87.27
2018-04-16T00:38:17.409Z,87.18
2018-04-16T00:41:28.549Z,87.23
2018-04-16T00:44:39.478Z,87.27
2018-04-16T00:47:50.576Z,87.18
2018-04-16T00:51:01.200Z,87.21
2018-04-16T00:54:23.588Z,87.16
2018-04-16T00:57:35.085Z,87.20
2018-04-16T01:00:45.727Z,87.17
2018-04-16T01:03:56.781Z,87.23
2018-04-16T01:07:08.114Z,87.24
2018-04-16T01:13:57.641Z,87.33
2018-04-16T01:17:07.881Z,87.40
2018-04-16T01:20:19.205Z,87.33
2018-04-16T01:23:30.193Z,87.46
2018-04-16T01:26:41.077Z,87.60
2018-04-16T01:29:51.969Z,87.57
2018-04-16T01:33:02.965Z,87.43
2018-04-16T01:36:14.010Z,87.49
2018-04-16T01:39:24.894Z,87.45
2018-04-16T01:46:13.097Z,87.42
2018-04-16T01:49:23.761Z,87.47
2018-04-16T01:52:34.833Z,87.42
2018-04-16T01:55:46.053Z,87.43
2018-04-16T01:58:56.651Z,87.37
2018-04-16T02:02:07.869Z,87.50
2018-04-16T02:05:19.369Z,87.45
2018-04-16T02:08:30.040Z,87.42
2018-04-16T02:11:41.053Z,87.36
2018-04-16T02:14:51.688Z,87.34
2018-04-16T02:18:02.596Z,87.46
2018-04-16T02:21:13.893Z,87.32
2018-04-16T02:28:05.192Z,87.38
2018-04-16T02:31:15.774Z,87.46
2018-04-16T02:34:27.158Z,87.44
2018-04-16T02:37:38.190Z,87.41
2018-04-16T02:40:49.603Z,87.43
2018-04-16T02:44:00.583Z,87.45
2018-04-16T02:47:11.276Z,87.43
2018-04-16T02:50:22.582Z,87.41
2018-04-16T02:53:33.329Z,87.40
2018-04-16T02:56:44.919Z,87.41
2018-04-16T02:59:55.498Z,87.40
2018-04-16T03:03:06.689Z,87.46
2018-04-16T03:06:17.821Z,87.47
2018-04-16T03:09:29.277Z,87.60
2018-04-16T03:12:39.871Z,87.48
2018-04-16T03:15:50.097Z,87.49
2018-04-16T03:19:00.736Z,87.35
2018-04-16T03:22:11.925Z,87.36
2018-04-16T03:25:23.140Z,87.41
2018-04-16T03:28:33.767Z,87.30
2018-04-16T03:31:45.378Z,87.33
2018-04-16T03:34:56.559Z,87.26
2018-04-16T03:38:07.597Z,87.31
2018-04-16T03:41:18.572Z,87.35
2018-04-16T03:44:29.037Z,87.35
2018-04-16T03:47:40.462Z,87.48
2018-04-16T03:50:51.488Z,87.49
2018-04-16T03:53:57.089Z,87.45
2018-04-16T03:57:02.311Z,87.54
2018-04-16T04:00:08.464Z,87.59
2018-04-16T04:03:14.524Z,87.70
2018-04-16T04:06:20.573Z,87.54
2018-04-16T04:09:26.405Z,87.57
2018-04-16T04:12:32.154Z,87.51
2018-04-16T04:15:38.184Z,87.51
2018-04-16T04:18:44.041Z,87.55
2018-04-16T04:21:50.073Z,87.58
2018-04-16T04:25:07.137Z,87.55
2018-04-16T04:28:24.060Z,87.49
2018-04-16T04:31:29.895Z,87.46
2018-04-16T04:34:35.899Z,87.43
2018-04-16T04:37:42.032Z,87.51
2018-04-16T04:40:48.159Z,87.46
2018-04-16T04:43:53.385Z,87.55
2018-04-16T04:46:59.447Z,87.52
2018-04-16T04:50:05.572Z,87.56
2018-04-16T04:53:11.494Z,87.68
2018-04-16T04:56:17.657Z,87.70
2018-04-16T04:59:23.788Z,87.75
2018-04-16T05:02:29.425Z,87.74
2018-04-16T05:05:35.268Z,87.64
2018-04-16T05:08:40.485Z,87.64
2018-04-16T05:11:45.725Z,87.95
2018-04-16T05:14:50.670Z,87.86
2018-04-16T05:17:56.089Z,87.91
2018-04-16T05:21:02.249Z,87.81
2018-04-16T05:24:08.166Z,87.84
2018-04-16T05:27:14.213Z,87.81
2018-04-16T05:30:19.918Z,87.89
2018-04-16T05:33:25.097Z,87.86
2018-04-16T05:36:30.125Z,87.66
2018-04-16T05:39:35.331Z,87.58
2018-04-16T05:42:41.696Z,87.19
2018-04-16T05:45:47.836Z,87.34
2018-04-16T05:48:53.774Z,87.32
2018-04-16T05:51:59.621Z,87.24
2018-04-16T05:55:05.760Z,87.04
2018-04-16T05:58:11.478Z,87.01
2018-04-16T06:01:16.673Z,86.95
2018-04-16T06:04:21.881Z,86.94
2018-04-16T06:07:27.098Z,86.99
2018-04-16T06:10:32.935Z,86.96
2018-04-16T06:13:38.546Z,87.03
2018-04-16T06:16:43.683Z,87.01
2018-04-16T06:19:48.652Z,87.00
2018-04-16T06:22:53.901Z,87.05
2018-04-16T06:25:58.877Z,86.97
2018-04-16T06:29:04.105Z,86.97
2018-04-16T06:32:09.321Z,86.89
2018-04-16T06:35:15.193Z,86.94
2018-04-16T06:38:21.325Z,86.94
2018-04-16T06:41:27.461Z,86.91
2018-04-16T06:44:33.510Z,86.86
2018-04-16T06:47:38.729Z,86.84
2018-04-16T06:50:43.940Z,86.84
2018-04-16T06:53:49.162Z,86.81
2018-04-16T06:56:54.361Z,86.85
2018-04-16T07:00:00.525Z,86.75
2018-04-16T07:03:06.569Z,86.87
2018-04-16T07:06:12.403Z,86.76
2018-04-16T07:09:17.622Z,86.71
2018-04-16T07:12:23.845Z,86.70
2018-04-16T07:15:29.876Z,86.65
2018-04-16T07:18:35.502Z,86.60
2018-04-16T07:21:41.412Z,86.61
2018-04-16T07:24:46.621Z,86.66
2018-04-16T07:27:52.753Z,86.64
2018-04-16T07:30:58.590Z,86.63
2018-04-16T07:34:04.437Z,86.57
2018-04-16T07:37:10.061Z,86.65
2018-04-16T07:40:15.054Z,86.54
2018-04-16T07:43:20.686Z,86.53
2018-04-16T07:46:26.509Z,86.48
2018-04-16T07:49:31.731Z,86.49
2018-04-16T07:52:36.975Z,86.50
2018-04-16T07:55:42.224Z,86.55
2018-04-16T07:58:47.433Z,86.49
2018-04-16T08:01:53.369Z,86.54
2018-04-16T08:04:59.304Z,86.55
2018-04-16T08:08:04.478Z,86.67
2018-04-16T08:11:09.470Z,86.52
2018-04-16T08:14:15.618Z,86.63
2018-04-16T08:17:21.234Z,86.59
2018-04-16T08:20:27.385Z,86.46
2018-04-16T08:23:33.305Z,86.47
2018-04-16T08:26:38.951Z,86.44
2018-04-16T08:29:43.833Z,86.61
2018-04-16T08:32:50.177Z,86.53
2018-04-16T08:35:55.893Z,86.48
2018-04-16T08:39:00.581Z,86.40
2018-04-16T08:42:05.798Z,86.37
2018-04-16T08:45:11.229Z,86.39
2018-04-16T08:48:16.453Z,86.42
2018-04-16T08:51:22.798Z,86.35
2018-04-16T08:54:28.049Z,86.32
2018-04-16T08:57:33.257Z,86.25
2018-04-16T09:00:38.975Z,86.25
2018-04-16T09:03:44.960Z,86.22
2018-04-16T09:06:50.921Z,86.17
2018-04-16T09:09:56.146Z,86.14
2018-04-16T09:13:01.383Z,86.12
2018-04-16T09:16:07.503Z,86.08
2018-04-16T09:19:13.453Z,85.99
2018-04-16T09:22:19.211Z,85.99
2018-04-16T09:25:25.341Z,85.92
2018-04-16T09:28:30.857Z,85.82
2018-04-16T09:31:36.617Z,85.72
2018-04-16T09:34:43.766Z,85.63
2018-04-16T09:37:50.611Z,85.56
2018-04-16T09:40:56.298Z,85.46
2018-04-16T09:44:01.521Z,85.52
2018-04-16T09:47:07.558Z,85.35
2018-04-16T09:50:14.000Z,85.24
2018-04-16T09:53:19.641Z,85.86
2018-04-16T09:56:25.764Z,85.34
2018-04-16T09:59:31.706Z,85.31
2018-04-16T10:02:37.502Z,85.17
2018-04-16T10:05:43.309Z,85.41
2018-04-16T10:08:49.150Z,85.21
2018-04-16T10:11:54.374Z,85.07
2018-04-16T10:15:00.161Z,84.98
2018-04-16T10:18:05.058Z,84.96
2018-04-16T10:21:10.468Z,84.87
2018-04-16T10:24:15.697Z,84.76
2018-04-16T10:27:21.658Z,84.89
2018-04-16T10:30:26.885Z,84.99
2018-04-16T10:33:33.025Z,84.88
2018-04-16T10:36:38.241Z,84.99
2018-04-16T10:39:45.371Z,84.75
2018-04-16T10:42:51.195Z,84.74
2018-04-16T10:45:56.802Z,84.59
2018-04-16T10:49:01.770Z,84.85
2018-04-16T10:52:06.986Z,84.79
2018-04-16T10:55:12.202Z,84.52
2018-04-16T10:58:17.345Z,84.79
2018-04-16T11:01:22.972Z,84.41
2018-04-16T11:04:28.773Z,84.55
2018-04-16T11:07:34.017Z,84.62
2018-04-16T11:10:39.233Z,84.29
2018-04-16T11:13:44.219Z,84.36
2018-04-16T11:16:49.617Z,84.43
2018-04-16T11:19:54.833Z,84.25
2018-04-16T11:22:59.822Z,84.68
2018-04-16T11:26:05.460Z,84.49
2018-04-16T11:29:10.897Z,84.32
2018-04-16T11:32:16.203Z,84.21
2018-04-16T11:35:21.540Z,84.31
2018-04-16T11:38:27.602Z,84.44
2018-04-16T11:41:32.816Z,84.37
2018-04-16T11:44:38.985Z,84.34
2018-04-16T11:47:44.221Z,84.19
2018-04-16T11:50:50.368Z,83.94
2018-04-16T11:53:56.402Z,83.95
2018-04-16T11:57:02.553Z,84.10
2018-04-16T12:00:07.765Z,83.89
2018-04-16T12:03:12.748Z,84.06
2018-04-16T12:06:17.973Z,83.95
2018-04-16T12:09:24.049Z,83.86
2018-04-16T12:12:31.243Z,83.85
2018-04-16T12:15:37.113Z,83.87
2018-04-16T12:18:42.841Z,83.82
2018-04-16T12:21:49.625Z,83.79
2018-04-16T12:24:56.041Z,83.61
2018-04-16T12:28:01.869Z,83.74
2018-04-16T12:31:07.793Z,83.61
2018-04-16T12:34:13.830Z,83.56
2018-04-16T12:37:19.849Z,83.50
2018-04-16T12:40:25.873Z,83.46
2018-04-16T12:43:31.691Z,83.52
2018-04-16T12:46:36.929Z,83.39
2018-04-16T12:49:42.137Z,83.30
2018-04-16T12:52:47.989Z,83.25
2018-04-16T12:55:54.039Z,83.15
2018-04-16T12:59:00.083Z,83.10
2018-04-16T13:02:06.037Z,83.00
2018-04-16T13:05:11.986Z,83.03
2018-04-16T13:08:18.015Z,82.86
2018-04-16T13:11:25.157Z,82.66
2018-04-16T13:14:31.104Z,82.65
2018-04-16T13:17:37.225Z,82.57
2018-04-16T13:20:44.274Z,82.49
2018-04-16T13:23:50.097Z,82.20
2018-04-16T13:26:56.154Z,82.09
2018-04-16T13:30:03.235Z,82.35
2018-04-16T13:33:08.789Z,82.16
2018-04-16T13:36:14.925Z,82.16
2018-04-16T13:39:20.140Z,82.09
2018-04-16T13:42:26.285Z,81.81
2018-04-16T13:45:32.534Z,81.51
2018-04-16T13:48:38.353Z,81.26
2018-04-16T13:51:43.584Z,81.36
2018-04-16T13:54:49.729Z,81.38
2018-04-16T13:57:55.629Z,81.20
2018-04-16T14:01:01.468Z,81.17
2018-04-16T14:04:07.114Z,81.02
2018-04-16T14:07:13.453Z,80.94
2018-04-16T14:10:19.406Z,80.86
2018-04-16T14:13:24.626Z,80.83
2018-04-16T14:16:29.677Z,80.70
2018-04-16T14:19:34.893Z,80.14
2018-04-16T14:22:40.106Z,79.96
2018-04-16T14:25:46.161Z,79.86
2018-04-16T14:28:52.065Z,80.12
2018-04-16T14:31:59.035Z,80.22
2018-04-16T14:35:04.847Z,80.22
2018-04-16T14:38:10.766Z,80.41
2018-04-16T14:41:16.910Z,80.60
2018-04-16T14:44:22.649Z,80.69
2018-04-16T14:47:28.590Z,80.77
2018-04-16T14:50:34.609Z,80.91
2018-04-16T14:53:40.644Z,81.02
2018-04-16T14:56:46.794Z,81.20
2018-04-16T14:59:52.773Z,81.33
2018-04-16T15:02:58.457Z,81.53
2018-04-16T15:06:04.113Z,81.59
2018-04-16T15:09:10.270Z,81.83
2018-04-16T15:12:16.089Z,81.97
2018-04-16T15:15:22.122Z,82.15
2018-04-16T15:18:28.090Z,82.28
2018-04-16T15:21:34.045Z,82.40
2018-04-16T15:24:39.913Z,82.57
2018-04-16T15:27:46.054Z,82.59
2018-04-16T15:30:51.497Z,82.78
2018-04-16T15:33:56.732Z,82.71
2018-04-16T15:37:01.656Z,82.95
2018-04-16T15:40:07.719Z,82.96
2018-04-16T15:43:13.507Z,83.12
2018-04-16T15:46:20.459Z,83.04
2018-04-16T15:49:26.006Z,82.82
2018-04-16T15:52:31.256Z,83.05
2018-04-16T15:55:36.629Z,83.13
2018-04-16T15:58:41.592Z,83.21
2018-04-16T16:01:46.527Z,83.29
2018-04-16T16:04:52.671Z,83.29
2018-04-16T16:07:58.586Z,83.50
2018-04-16T16:11:04.237Z,83.50
2018-04-16T16:14:09.747Z,83.69
2018-04-16T16:17:14.782Z,83.61
2018-04-16T16:20:20.107Z,83.76
2018-04-16T16:23:25.482Z,83.86
2018-04-16T16:26:31.310Z,83.90
2018-04-16T16:29:36.657Z,84.04
2018-04-16T16:32:41.990Z,84.05
2018-04-16T16:35:47.121Z,84.09
2018-04-16T16:38:52.917Z,84.12
2018-04-16T16:41:58.560Z,84.15
2018-04-16T16:45:04.862Z,84.23
2018-04-16T16:48:10.400Z,84.31
2018-04-16T16:51:15.650Z,84.34
2018-04-16T16:54:21.485Z,84.33
2018-04-16T16:57:26.413Z,84.43
2018-04-16T17:00:32.297Z,84.38
2018-04-16T17:03:37.233Z,84.59
2018-04-16T17:06:43.131Z,84.39
2018-04-16T17:09:48.037Z,84.52
2018-04-16T17:12:53.860Z,84.57
2018-04-16T17:15:59.707Z,84.50
2018-04-16T17:19:04.405Z,84.59
2018-04-16T17:22:10.085Z,84.68
2018-04-16T17:25:15.851Z,84.64
2018-04-16T17:28:20.788Z,84.71
2018-04-16T17:31:25.720Z,84.68
2018-04-16T17:34:30.730Z,85.30
2018-04-16T17:37:35.859Z,85.23
2018-04-16T17:40:40.801Z,85.13
2018-04-16T17:43:45.761Z,85.21
2018-04-16T17:46:50.899Z,85.03
2018-04-16T17:49:55.856Z,84.87
2018-04-16T17:53:01.314Z,85.24
2018-04-16T17:56:07.176Z,85.30
2018-04-16T17:59:14.202Z,85.08
2018-04-16T18:02:19.761Z,85.09
2018-04-16T18:05:25.712Z,85.37
2018-04-16T18:08:31.262Z,85.26
2018-04-16T18:11:36.608Z,85.17
2018-04-16T18:14:41.675Z,85.14
2018-04-16T18:17:46.610Z,85.46
2018-04-16T18:20:52.665Z,85.24
2018-04-16T18:23:58.073Z,85.67
2018-04-16T18:27:03.695Z,85.44
2018-04-16T18:30:08.921Z,85.17
2018-04-16T18:33:13.922Z,85.49
2018-04-16T18:36:19.507Z,85.42
2018-04-16T18:39:24.469Z,85.46
2018-04-16T18:42:30.654Z,85.67
2018-04-16T18:45:36.593Z,85.53
2018-04-16T18:48:42.142Z,85.50
2018-04-16T18:51:47.989Z,85.83
2018-04-16T18:54:53.451Z,85.61
2018-04-16T18:58:00.229Z,85.40
2018-04-16T19:01:05.601Z,85.43
2018-04-16T19:04:10.217Z,85.63
2018-04-16T19:07:15.785Z,85.61
2018-04-16T19:10:20.393Z,85.56
2018-04-16T19:13:26.250Z,85.46
2018-04-16T19:16:31.225Z,85.45
2018-04-16T19:19:36.181Z,85.28
2018-04-16T19:22:41.745Z,85.46
2018-04-16T19:25:47.646Z,85.65
2018-04-16T19:28:52.470Z,85.65
2018-04-16T19:31:57.836Z,85.46
2018-04-16T19:35:07.257Z,85.38
2018-04-16T19:38:14.269Z,85.32
2018-04-16T19:41:19.590Z,85.18
2018-04-16T19:44:24.520Z,84.98
2018-04-16T19:47:29.878Z,84.87
2018-04-16T19:50:34.861Z,84.63
2018-04-16T19:53:40.809Z,84.79
2018-04-16T19:56:52.709Z,84.51
2018-04-16T19:59:58.559Z,84.47
2018-04-16T20:03:09.981Z,84.56
2018-04-16T20:06:15.597Z,84.69
2018-04-16T20:09:21.149Z,84.57
2018-04-16T20:12:27.078Z,84.64
2018-04-16T20:15:32.627Z,84.71
2018-04-16T20:18:37.563Z,84.71
2018-04-16T20:21:42.481Z,84.72
2018-04-16T20:24:48.438Z,84.68
2018-04-16T20:27:54.062Z,84.66
2018-04-16T20:30:58.984Z,84.68
2018-04-16T20:34:04.829Z,84.88
2018-04-16T20:37:10.185Z,84.98
2018-04-16T20:40:15.117Z,85.08
2018-04-16T20:43:20.965Z,85.02
2018-04-16T20:46:26.301Z,85.18
2018-04-16T20:49:31.237Z,84.92
2018-04-16T20:52:36.572Z,84.79
2018-04-16T20:55:41.509Z,85.13
2018-04-16T20:58:46.623Z,85.09
2018-04-16T21:01:52.491Z,84.99
2018-04-16T21:04:58.322Z,85.28
2018-04-16T21:08:03.252Z,85.21
2018-04-16T21:11:08.918Z,85.56
2018-04-16T21:14:13.844Z,85.33
2018-04-16T21:17:18.790Z,85.13
2018-04-16T21:20:24.432Z,85.39
2018-04-16T21:23:29.413Z,85.30
2018-04-16T21:26:34.377Z,85.15
2018-04-16T21:29:39.945Z,85.47
2018-04-16T21:32:44.869Z,85.41
2018-04-16T21:35:50.208Z,85.39
2018-04-16T21:38:55.136Z,85.26
2018-04-16T21:42:00.685Z,85.14
2018-04-16T21:45:05.294Z,85.04
2018-04-16T21:48:10.725Z,84.93
2018-04-16T21:51:15.335Z,85.06
2018-04-16T21:54:20.534Z,84.87
2018-04-16T21:57:26.369Z,85.00
2018-04-16T22:00:31.701Z,84.87
2018-04-16T22:03:37.593Z,85.04
2018-04-16T22:06:42.535Z,85.07
2018-04-16T22:09:48.960Z,85.13
2018-04-16T22:12:54.681Z,84.98
2018-04-16T22:15:59.619Z,85.22
2018-04-16T22:19:05.284Z,85.20
2018-04-16T22:22:10.993Z,85.22
2018-04-16T22:25:16.344Z,85.29
2018-04-16T22:28:22.589Z,85.15
2018-04-16T22:31:27.971Z,85.25
2018-04-16T22:34:32.657Z,85.25
2018-04-16T22:37:38.041Z,85.36
2018-04-16T22:40:42.965Z,85.35
2018-04-16T22:43:48.173Z,85.27
2018-04-16T22:46:53.521Z,85.41
2018-04-16T22:49:58.441Z,85.25
2018-04-16T22:53:04.769Z,85.06
2018-04-16T22:56:09.357Z,85.55
2018-04-16T22:59:14.833Z,85.19
2018-04-16T23:02:20.760Z,85.27
2018-04-16T23:05:26.577Z,85.37
2018-04-16T23:08:32.296Z,85.23
2018-04-16T23:11:38.542Z,85.25
2018-04-16T23:14:43.916Z,85.35
2018-04-16T23:17:49.495Z,85.32
2018-04-16T23:20:55.597Z,85.27
2018-04-16T23:24:01.210Z,85.38
2018-04-16T23:27:06.466Z,85.43
2018-04-16T23:30:11.840Z,85.41
2018-04-16T23:33:17.669Z,85.64
2018-04-16T23:36:23.998Z,85.56
2018-04-16T23:39:31.037Z,85.79
2018-04-16T23:42:36.870Z,85.47
2018-04-16T23:45:42.961Z,85.65
2018-04-16T23:48:49.098Z,85.64
2018-04-16T23:51:54.286Z,85.68
2018-04-16T23:54:59.913Z,85.64
2018-04-16T23:58:06.032Z,85.75
